Portada
METAR-TAF:

METAR-TAF

Aeroports :

La Paz, Mèxic

latitud: 24-04N, longitud: 110-22W, altitud: 21 m

Observació

L'informe es va fer fa 1 hora i 11 minuts, a les 20:40 UTC
Vent 12 kt del Nord/Nord-Oest
Temperatura 35°C
Humitat 22%
Pressió 1009 hPa
Visibilitat: 16.1 km
Cel clar

METAR: MMLP 192040Z 33012KT 10SM SKC 35/10 A2980 RMK SLP090 57029 971

Hora: 15:51 (21:51 UTC)

Pronòstic

L'informe es va fer fa 5 hores i 31 minuts, a les 16:20 UTC
Pronòstic vàlid del 19 a les 18 UTC al 20 a les 18 UTC
Vent 10 kt del Nord/Nord-Oest
Visibilitat: 10 km
Cel clar
A partir de les 20 a les 0300 UTC
Vent kt del Nord
Visibilitat: 10 km
Cel clar
A partir de les 20 a les 1200 UTC
Vent 5 kt del Sud-Est
Visibilitat: 10 km
Cel clar

TAF: MMLP 191620Z 1918/2018 34010KT P6SM SKC FM200300 00000KT P6SM SKC FM201200 14005KT P6SM SKC

Observacions i pronòstics meteorològics de més de 4000 aeroports (METAR i TAF).

Les estacions disponibles són els punts grocs i vermells al mapa.

Posi el ratolí al punt desitjat per veure el nom de l'estació.

Feu clic per veure les observacions i els pronòstics meteorològics.

Per canviar el mapa: feu clic els botons verds amb una creu de color negre per apropar; al botó verd amb un guió per allunyar la imatge; o en les fletxes verdes per a mapes adjacents.


METAR-TAF: